CYRJ

Roberval Airport

Roberval, Quebec, Canada
METAR CYRJ 240300Z 29006KT 25SM FEW025 M01/M05 A3049 RMK SC1 SC TR SLP335
Observed Flight Rules
Sep-24 @ 03:00 UTC (45 minutes ago) Visual Flight Rules
Wind Visibility Clouds
290° at 6 knots 25 miles
  • Few at 2,500' AGL
Temperatures Readings
Current -1°C / 30°F
Dewpoint -5°C / 23°F
Humidity 75%
Altimeter 30.49" Hg
Pressure 1033.5 hPa
Elevation 179
METAR CYRJ 240300Z 29006KT 25SM FEW025 M01/M05 A3049 RMK SC1 SC TR SLP335
Observed Flight Rules
Sep-24 @ 03:00 UTC
(45 minutes ago)
VFR
Wind Visibility
290° at 6 knots 25 miles
Clouds
  • Few at 2,500' AGL
Temperature Dewpoint
-1°C / 30°F -5°C / 23°F
Humidity Altimeter Pressure
75% 30.49" Hg 1033.5 hPa